KMGC/MGC METAR and TAF weather

Enter ICAO airport designator
Station Type Date Time Source
KMGC METAR 2019/10/15 22:15 UTC NOAA

KMGC 152215Z AUTO 20011G17KT 10SM BKN032 BKN050 OVC060 18/16 A2972 RMK AO2


Station Type Date Time Source
KMGC Decoded METAR 2019/10/15 22:15 UTC NOAA

Station name not available
Oct 15, 2019 - 06:15 PM EDT / 2019.10.15 2215 UTC
Wind: from the SSW (200 degrees) at 13 MPH (11 KT) gusting to 20 MPH (17 KT):0
Visibility: 10 mile(s):0
Sky conditions: overcast
Temperature: 64 F (18 C)
Dew Point: 60 F (16 C)
Relative Humidity: 88%
Pressure (altimeter): 29.72 in. Hg (1006 hPa)
ob: KMGC 152215Z AUTO 20011G17KT 10SM BKN032 BKN050 OVC060 18/16 A2972 RMK AO2
cycle: 22

Station Type Date Time Source
KMGC TAF UTC NOAA

Error!

Example: see airport list